KMPV/MPV METAR and TAF weather

Enter ICAO airport designator
Station Type Date Time Source
KMPV METAR 2018/12/10 01:51 UTC NOAA

KMPV 100151Z AUTO 25007KT 10SM OVC035 M02/M08 A3010 RMK AO2 SLP213 T10221078


Station Type Date Time Source
KMPV Decoded METAR 2018/12/10 01:51 UTC NOAA

KNAPP STATE AIRPORT, VT, United States (KMPV) 44-12N 072-34W 343M
Dec 09, 2018 - 08:51 PM EST / 2018.12.10 0151 UTC
Wind: from the WSW (250 degrees) at 8 MPH (7 KT):0
Visibility: 10 mile(s):0
Sky conditions: overcast
Temperature: 28.0 F (-2.2 C)
Windchill: 19 F (-7 C):1
Dew Point: 18.0 F (-7.8 C)
Relative Humidity: 65%
Pressure (altimeter): 30.1 in. Hg (1019 hPa)
ob: KMPV 100151Z AUTO 25007KT 10SM OVC035 M02/M08 A3010 RMK AO2 SLP213 T10221078
cycle: 2

Station Type Date Time Source
KMPV TAF 2018/12/09 20:33 UTC NOAA

TAF
AMD KMPV 091930Z 0920/1018 24007KT P6SM SCT025
TEMPO 0920/0924 BKN025
FM101100 33006KT P6SM VCSH OVC025
FM101700 35006KT P6SM BKN030


Example: see airport list